メインページ
METAR-TAF:

METAR-TAF

空港 :

マリンディ, ケニヤ

緯度: 03-14S, 経度: 040-06E, 海抜: 20m

現時点の気象観測

当レポートは41分前の08:00(UTC)に作成
の風 17kt
気温 27°C
湿度 66%
気圧 1018 hPa
視程10km以上
高度2200ftの雲は散在している, 塔状積雲.

METAR: HKML 200800Z 18017KT 9999 SCT022TCU 27/20 Q1018

時間: 11:41 (08:41 UTC)


TAF: 見つかりません

4,000以上の空港の気象観測と天気予報(METAR報とTAF報)

利用可能な観測所は地図上に黄色い丸と赤い丸で示す。

丸の上にカーソルを重ねると観測所名を参照できる。

次にクリックすると気象観測と天気予報を参照できる。

マップの切り替え:黒色「×」印の緑ボタンをクリックして拡大、「-」印の緑ボタンをクリックして縮小、緑色の三角印をクリックして隣りの地図に切り替え


METAR-TAF: